sensor_id;sensor_type;location;lat;lon;timestamp;P1;durP1;ratioP1;P2;durP2;ratioP2
29484;SDS011;16440;59.494;17.978;2022-08-01T00:00:10;3.60;;;1.40;;
29484;SDS011;16440;59.494;17.978;2022-08-01T00:02:38;2.25;;;1.30;;
29484;SDS011;16440;59.494;17.978;2022-08-01T00:07:36;2.70;;;1.60;;
29484;SDS011;16440;59.494;17.978;2022-08-01T00:10:05;1.52;;;1.40;;
29484;SDS011;16440;59.494;17.978;2022-08-01T00:12:32;4.32;;;1.45;;
29484;SDS011;16440;59.494;17.978;2022-08-01T00:15:00;2.10;;;1.35;;
29484;SDS011;16440;59.494;17.978;2022-08-01T00:17:32;2.37;;;1.27;;
29484;SDS011;16440;59.494;17.978;2022-08-01T00:20:01;2.12;;;1.40;;
29484;SDS011;16440;59.494;17.978;2022-08-01T00:22:31;1.70;;;1.35;;
29484;SDS011;16440;59.494;17.978;2022-08-01T00:25:00;7.35;;;1.60;;
29484;SDS011;16440;59.494;17.978;2022-08-01T00:27:30;4.37;;;1.70;;
29484;SDS011;16440;59.494;17.978;2022-08-01T00:29:58;5.28;;;1.50;;
29484;SDS011;16440;59.494;17.978;2022-08-01T00:32:27;2.60;;;1.40;;
29484;SDS011;16440;59.494;17.978;2022-08-01T00:34:59;6.57;;;1.67;;
29484;SDS011;16440;59.494;17.978;2022-08-01T00:37:27;2.83;;;1.42;;
29484;SDS011;16440;59.494;17.978;2022-08-01T00:39:55;2.90;;;1.50;;
29484;SDS011;16440;59.494;17.978;2022-08-01T00:42:23;1.65;;;1.40;;
29484;SDS011;16440;59.494;17.978;2022-08-01T00:44:51;3.55;;;1.58;;
29484;SDS011;16440;59.494;17.978;2022-08-01T00:47:19;2.80;;;1.73;;
29484;SDS011;16440;59.494;17.978;2022-08-01T00:49:49;2.33;;;1.45;;
29484;SDS011;16440;59.494;17.978;2022-08-01T00:52:17;3.75;;;1.48;;
29484;SDS011;16440;59.494;17.978;2022-08-01T00:54:45;2.17;;;1.83;;
29484;SDS011;16440;59.494;17.978;2022-08-01T00:57:14;1.40;;;1.30;;
29484;SDS011;16440;59.494;17.978;2022-08-01T00:59:42;2.37;;;1.52;;
29484;SDS011;16440;59.494;17.978;2022-08-01T01:02:10;2.87;;;1.60;;
29484;SDS011;16440;59.494;17.978;2022-08-01T01:04:38;2.17;;;1.65;;
29484;SDS011;16440;59.494;17.978;2022-08-01T01:09:42;4.82;;;1.70;;
29484;SDS011;16440;59.494;17.978;2022-08-01T01:12:16;3.62;;;1.60;;
29484;SDS011;16440;59.494;17.978;2022-08-01T01:14:54;3.55;;;1.77;;
29484;SDS011;16440;59.494;17.978;2022-08-01T01:17:28;2.83;;;1.58;;
29484;SDS011;16440;59.494;17.978;2022-08-01T01:20:02;3.05;;;1.70;;
29484;SDS011;16440;59.494;17.978;2022-08-01T01:22:40;4.45;;;1.83;;
29484;SDS011;16440;59.494;17.978;2022-08-01T01:25:34;2.58;;;1.55;;
29484;SDS011;16440;59.494;17.978;2022-08-01T01:28:20;4.22;;;1.70;;
29484;SDS011;16440;59.494;17.978;2022-08-01T01:30:56;3.25;;;1.80;;
29484;SDS011;16440;59.494;17.978;2022-08-01T01:33:26;2.60;;;1.70;;
29484;SDS011;16440;59.494;17.978;2022-08-01T01:35:57;3.15;;;1.75;;
29484;SDS011;16440;59.494;17.978;2022-08-01T01:38:32;4.05;;;2.05;;
29484;SDS011;16440;59.494;17.978;2022-08-01T01:43:36;4.80;;;1.83;;
29484;SDS011;16440;59.494;17.978;2022-08-01T01:48:34;4.40;;;2.15;;
29484;SDS011;16440;59.494;17.978;2022-08-01T01:51:05;2.53;;;1.55;;
29484;SDS011;16440;59.494;17.978;2022-08-01T01:53:32;5.35;;;1.87;;
29484;SDS011;16440;59.494;17.978;2022-08-01T01:56:02;3.28;;;2.40;;
29484;SDS011;16440;59.494;17.978;2022-08-01T01:58:31;4.28;;;1.75;;
29484;SDS011;16440;59.494;17.978;2022-08-01T02:01:02;5.03;;;1.87;;
29484;SDS011;16440;59.494;17.978;2022-08-01T02:03:32;3.47;;;1.90;;
29484;SDS011;16440;59.494;17.978;2022-08-01T02:06:03;4.82;;;2.05;;
29484;SDS011;16440;59.494;17.978;2022-08-01T02:08:31;2.30;;;1.90;;
29484;SDS011;16440;59.494;17.978;2022-08-01T02:11:01;2.75;;;1.90;;
29484;SDS011;16440;59.494;17.978;2022-08-01T02:13:31;3.05;;;1.80;;
29484;SDS011;16440;59.494;17.978;2022-08-01T02:16:03;2.62;;;1.80;;
29484;SDS011;16440;59.494;17.978;2022-08-01T02:18:31;3.08;;;2.00;;
29484;SDS011;16440;59.494;17.978;2022-08-01T02:21:01;2.72;;;1.80;;
29484;SDS011;16440;59.494;17.978;2022-08-01T02:23:33;2.78;;;1.80;;
29484;SDS011;16440;59.494;17.978;2022-08-01T02:26:04;4.70;;;1.70;;
29484;SDS011;16440;59.494;17.978;2022-08-01T02:28:32;3.40;;;1.90;;
29484;SDS011;16440;59.494;17.978;2022-08-01T02:31:05;3.53;;;2.00;;
29484;SDS011;16440;59.494;17.978;2022-08-01T02:33:39;3.05;;;1.75;;
29484;SDS011;16440;59.494;17.978;2022-08-01T02:36:09;3.67;;;1.98;;
29484;SDS011;16440;59.494;17.978;2022-08-01T02:38:41;4.40;;;2.08;;
29484;SDS011;16440;59.494;17.978;2022-08-01T02:41:13;4.45;;;2.40;;
29484;SDS011;16440;59.494;17.978;2022-08-01T02:43:48;7.78;;;2.00;;
29484;SDS011;16440;59.494;17.978;2022-08-01T02:46:21;3.85;;;2.08;;
29484;SDS011;16440;59.494;17.978;2022-08-01T02:48:52;3.15;;;2.00;;
29484;SDS011;16440;59.494;17.978;2022-08-01T02:51:23;2.67;;;1.98;;
29484;SDS011;16440;59.494;17.978;2022-08-01T02:53:53;3.28;;;2.78;;
29484;SDS011;16440;59.494;17.978;2022-08-01T02:56:23;3.62;;;1.85;;
29484;SDS011;16440;59.494;17.978;2022-08-01T02:59:00;2.33;;;2.05;;
29484;SDS011;16440;59.494;17.978;2022-08-01T03:01:31;3.87;;;2.12;;
29484;SDS011;16440;59.494;17.978;2022-08-01T03:04:02;3.78;;;2.10;;
29484;SDS011;16440;59.494;17.978;2022-08-01T03:06:31;6.37;;;2.30;;
29484;SDS011;16440;59.494;17.978;2022-08-01T03:09:02;6.75;;;2.03;;
29484;SDS011;16440;59.494;17.978;2022-08-01T03:11:32;4.32;;;2.10;;
29484;SDS011;16440;59.494;17.978;2022-08-01T03:14:01;4.62;;;2.15;;
29484;SDS011;16440;59.494;17.978;2022-08-01T03:16:36;4.50;;;2.00;;
29484;SDS011;16440;59.494;17.978;2022-08-01T03:21:37;3.75;;;2.22;;
29484;SDS011;16440;59.494;17.978;2022-08-01T03:24:07;3.55;;;2.17;;
29484;SDS011;16440;59.494;17.978;2022-08-01T03:26:38;3.20;;;2.00;;
29484;SDS011;16440;59.494;17.978;2022-08-01T03:29:12;6.95;;;1.90;;
29484;SDS011;16440;59.494;17.978;2022-08-01T03:31:45;3.80;;;2.40;;
29484;SDS011;16440;59.494;17.978;2022-08-01T03:34:14;5.15;;;2.12;;
29484;SDS011;16440;59.494;17.978;2022-08-01T03:36:45;4.35;;;2.53;;
29484;SDS011;16440;59.494;17.978;2022-08-01T03:39:14;5.57;;;2.15;;
29484;SDS011;16440;59.494;17.978;2022-08-01T03:41:46;2.95;;;2.10;;
29484;SDS011;16440;59.494;17.978;2022-08-01T03:44:20;4.22;;;2.10;;
29484;SDS011;16440;59.494;17.978;2022-08-01T03:46:56;4.70;;;2.08;;
29484;SDS011;16440;59.494;17.978;2022-08-01T03:49:28;2.85;;;2.10;;
29484;SDS011;16440;59.494;17.978;2022-08-01T03:51:59;2.87;;;2.33;;
29484;SDS011;16440;59.494;17.978;2022-08-01T03:54:36;3.22;;;2.25;;
29484;SDS011;16440;59.494;17.978;2022-08-01T03:57:07;2.55;;;2.00;;
29484;SDS011;16440;59.494;17.978;2022-08-01T03:59:36;2.30;;;1.60;;
29484;SDS011;16440;59.494;17.978;2022-08-01T04:04:35;5.20;;;2.25;;
29484;SDS011;16440;59.494;17.978;2022-08-01T04:07:03;2.97;;;2.08;;
29484;SDS011;16440;59.494;17.978;2022-08-01T04:09:31;4.78;;;2.25;;
29484;SDS011;16440;59.494;17.978;2022-08-01T04:12:00;3.78;;;2.30;;
29484;SDS011;16440;59.494;17.978;2022-08-01T04:14:28;2.72;;;1.80;;
29484;SDS011;16440;59.494;17.978;2022-08-01T04:16:56;2.65;;;2.00;;
29484;SDS011;16440;59.494;17.978;2022-08-01T04:19:24;8.13;;;2.30;;
29484;SDS011;16440;59.494;17.978;2022-08-01T04:21:53;6.65;;;2.40;;
29484;SDS011;16440;59.494;17.978;2022-08-01T04:24:21;3.37;;;1.90;;
29484;SDS011;16440;59.494;17.978;2022-08-01T04:26:51;4.93;;;2.10;;
29484;SDS011;16440;59.494;17.978;2022-08-01T04:29:20;6.50;;;2.00;;
29484;SDS011;16440;59.494;17.978;2022-08-01T04:31:50;5.43;;;2.22;;
29484;SDS011;16440;59.494;17.978;2022-08-01T04:34:23;5.57;;;1.98;;
29484;SDS011;16440;59.494;17.978;2022-08-01T04:36:56;5.12;;;1.90;;
29484;SDS011;16440;59.494;17.978;2022-08-01T04:39:27;5.10;;;2.03;;
29484;SDS011;16440;59.494;17.978;2022-08-01T04:41:58;6.22;;;2.20;;
29484;SDS011;16440;59.494;17.978;2022-08-01T04:44:28;2.72;;;1.80;;
29484;SDS011;16440;59.494;17.978;2022-08-01T04:46:58;4.28;;;2.03;;
29484;SDS011;16440;59.494;17.978;2022-08-01T04:49:28;2.97;;;1.80;;
29484;SDS011;16440;59.494;17.978;2022-08-01T04:51:59;4.95;;;2.35;;
29484;SDS011;16440;59.494;17.978;2022-08-01T04:54:27;4.90;;;1.90;;
29484;SDS011;16440;59.494;17.978;2022-08-01T04:56:58;1.62;;;1.40;;
29484;SDS011;16440;59.494;17.978;2022-08-01T04:59:27;4.78;;;1.48;;
29484;SDS011;16440;59.494;17.978;2022-08-01T05:04:35;4.35;;;1.60;;
29484;SDS011;16440;59.494;17.978;2022-08-01T05:07:06;4.05;;;1.25;;
29484;SDS011;16440;59.494;17.978;2022-08-01T05:09:36;2.92;;;1.40;;
29484;SDS011;16440;59.494;17.978;2022-08-01T05:14:36;3.72;;;1.27;;
29484;SDS011;16440;59.494;17.978;2022-08-01T05:17:05;6.57;;;1.45;;
29484;SDS011;16440;59.494;17.978;2022-08-01T05:19:33;3.33;;;1.30;;
29484;SDS011;16440;59.494;17.978;2022-08-01T05:22:03;2.15;;;1.48;;
29484;SDS011;16440;59.494;17.978;2022-08-01T05:24:31;2.72;;;1.55;;
29484;SDS011;16440;59.494;17.978;2022-08-01T05:27:00;2.60;;;1.30;;
29484;SDS011;16440;59.494;17.978;2022-08-01T05:29:29;3.92;;;1.20;;
29484;SDS011;16440;59.494;17.978;2022-08-01T05:31:58;2.67;;;1.40;;
29484;SDS011;16440;59.494;17.978;2022-08-01T05:34:27;3.20;;;1.30;;
29484;SDS011;16440;59.494;17.978;2022-08-01T05:37:00;2.40;;;1.55;;
29484;SDS011;16440;59.494;17.978;2022-08-01T05:39:28;2.00;;;1.30;;
29484;SDS011;16440;59.494;17.978;2022-08-01T05:41:56;4.43;;;1.20;;
29484;SDS011;16440;59.494;17.978;2022-08-01T05:44:25;2.53;;;1.10;;
29484;SDS011;16440;59.494;17.978;2022-08-01T05:46:53;3.25;;;1.30;;
29484;SDS011;16440;59.494;17.978;2022-08-01T05:49:21;1.90;;;1.00;;
29484;SDS011;16440;59.494;17.978;2022-08-01T05:52:00;1.25;;;1.00;;
29484;SDS011;16440;59.494;17.978;2022-08-01T05:54:33;0.93;;;0.82;;
29484;SDS011;16440;59.494;17.978;2022-08-01T05:57:04;3.30;;;1.30;;
29484;SDS011;16440;59.494;17.978;2022-08-01T05:59:34;3.80;;;1.58;;
29484;SDS011;16440;59.494;17.978;2022-08-01T06:02:05;1.77;;;1.08;;
29484;SDS011;16440;59.494;17.978;2022-08-01T06:04:32;3.75;;;1.10;;
29484;SDS011;16440;59.494;17.978;2022-08-01T06:07:01;3.53;;;1.23;;
29484;SDS011;16440;59.494;17.978;2022-08-01T06:09:30;2.47;;;1.17;;
29484;SDS011;16440;59.494;17.978;2022-08-01T06:11:58;1.80;;;1.20;;
29484;SDS011;16440;59.494;17.978;2022-08-01T06:14:29;3.15;;;0.95;;
29484;SDS011;16440;59.494;17.978;2022-08-01T06:16:57;2.58;;;1.12;;
29484;SDS011;16440;59.494;17.978;2022-08-01T06:19:25;2.20;;;0.90;;
29484;SDS011;16440;59.494;17.978;2022-08-01T06:21:53;1.35;;;1.17;;
29484;SDS011;16440;59.494;17.978;2022-08-01T06:24:22;2.17;;;0.88;;
29484;SDS011;16440;59.494;17.978;2022-08-01T06:26:51;1.30;;;1.02;;
29484;SDS011;16440;59.494;17.978;2022-08-01T06:29:19;2.40;;;1.10;;
29484;SDS011;16440;59.494;17.978;2022-08-01T06:31:48;3.28;;;0.95;;
29484;SDS011;16440;59.494;17.978;2022-08-01T06:34:16;3.65;;;1.10;;
29484;SDS011;16440;59.494;17.978;2022-08-01T06:36:44;2.87;;;1.08;;
29484;SDS011;16440;59.494;17.978;2022-08-01T06:39:12;1.17;;;1.00;;
29484;SDS011;16440;59.494;17.978;2022-08-01T06:41:41;1.23;;;1.00;;
29484;SDS011;16440;59.494;17.978;2022-08-01T06:44:11;2.03;;;1.10;;
29484;SDS011;16440;59.494;17.978;2022-08-01T06:46:42;3.33;;;1.20;;
29484;SDS011;16440;59.494;17.978;2022-08-01T06:49:11;1.50;;;1.10;;
29484;SDS011;16440;59.494;17.978;2022-08-01T06:51:39;1.80;;;1.17;;
29484;SDS011;16440;59.494;17.978;2022-08-01T06:54:08;2.15;;;0.90;;
29484;SDS011;16440;59.494;17.978;2022-08-01T06:56:37;2.72;;;1.08;;
29484;SDS011;16440;59.494;17.978;2022-08-01T06:59:06;1.95;;;1.02;;
29484;SDS011;16440;59.494;17.978;2022-08-01T07:01:35;1.67;;;0.88;;
29484;SDS011;16440;59.494;17.978;2022-08-01T07:04:03;4.80;;;1.10;;
29484;SDS011;16440;59.494;17.978;2022-08-01T07:06:31;2.47;;;0.90;;
29484;SDS011;16440;59.494;17.978;2022-08-01T07:08:59;1.67;;;0.90;;
29484;SDS011;16440;59.494;17.978;2022-08-01T07:11:28;4.90;;;1.10;;
29484;SDS011;16440;59.494;17.978;2022-08-01T07:13:57;3.22;;;1.05;;
29484;SDS011;16440;59.494;17.978;2022-08-01T07:16:27;1.95;;;1.05;;
29484;SDS011;16440;59.494;17.978;2022-08-01T07:18:55;1.92;;;1.10;;
29484;SDS011;16440;59.494;17.978;2022-08-01T07:21:24;1.30;;;0.90;;
29484;SDS011;16440;59.494;17.978;2022-08-01T07:23:52;1.42;;;1.00;;
29484;SDS011;16440;59.494;17.978;2022-08-01T07:26:20;2.15;;;1.33;;
29484;SDS011;16440;59.494;17.978;2022-08-01T07:28:48;3.37;;;1.02;;
29484;SDS011;16440;59.494;17.978;2022-08-01T07:31:16;3.03;;;1.17;;
29484;SDS011;16440;59.494;17.978;2022-08-01T07:33:46;3.05;;;1.20;;
29484;SDS011;16440;59.494;17.978;2022-08-01T07:36:19;2.72;;;1.10;;
29484;SDS011;16440;59.494;17.978;2022-08-01T07:41:34;1.33;;;1.10;;
29484;SDS011;16440;59.494;17.978;2022-08-01T07:44:02;2.53;;;1.17;;
29484;SDS011;16440;59.494;17.978;2022-08-01T07:46:31;1.17;;;0.75;;
29484;SDS011;16440;59.494;17.978;2022-08-01T07:49:00;1.80;;;1.00;;
29484;SDS011;16440;59.494;17.978;2022-08-01T07:51:28;1.00;;;0.88;;
29484;SDS011;16440;59.494;17.978;2022-08-01T07:53:56;2.45;;;0.90;;
29484;SDS011;16440;59.494;17.978;2022-08-01T07:56:24;2.25;;;1.05;;
29484;SDS011;16440;59.494;17.978;2022-08-01T07:58:53;2.97;;;0.85;;
29484;SDS011;16440;59.494;17.978;2022-08-01T08:01:21;2.75;;;0.90;;
29484;SDS011;16440;59.494;17.978;2022-08-01T08:03:50;2.85;;;0.90;;
29484;SDS011;16440;59.494;17.978;2022-08-01T08:06:25;1.45;;;0.98;;
29484;SDS011;16440;59.494;17.978;2022-08-01T08:08:53;2.55;;;1.10;;
29484;SDS011;16440;59.494;17.978;2022-08-01T08:11:21;1.50;;;0.90;;
29484;SDS011;16440;59.494;17.978;2022-08-01T08:13:52;2.10;;;1.02;;
29484;SDS011;16440;59.494;17.978;2022-08-01T08:16:23;2.85;;;1.10;;
29484;SDS011;16440;59.494;17.978;2022-08-01T08:18:51;2.22;;;1.42;;
29484;SDS011;16440;59.494;17.978;2022-08-01T08:21:24;3.20;;;0.90;;
29484;SDS011;16440;59.494;17.978;2022-08-01T08:23:58;3.05;;;0.90;;
29484;SDS011;16440;59.494;17.978;2022-08-01T08:26:31;0.90;;;0.70;;
29484;SDS011;16440;59.494;17.978;2022-08-01T08:28:59;2.35;;;0.90;;
29484;SDS011;16440;59.494;17.978;2022-08-01T08:31:27;2.62;;;0.88;;
29484;SDS011;16440;59.494;17.978;2022-08-01T08:33:55;3.72;;;1.00;;
29484;SDS011;16440;59.494;17.978;2022-08-01T08:36:31;3.25;;;0.95;;
29484;SDS011;16440;59.494;17.978;2022-08-01T08:39:00;2.47;;;0.85;;
29484;SDS011;16440;59.494;17.978;2022-08-01T08:41:31;2.60;;;1.00;;
29484;SDS011;16440;59.494;17.978;2022-08-01T08:44:00;2.08;;;1.15;;
29484;SDS011;16440;59.494;17.978;2022-08-01T08:46:31;3.65;;;1.20;;
29484;SDS011;16440;59.494;17.978;2022-08-01T08:49:01;1.92;;;1.00;;
29484;SDS011;16440;59.494;17.978;2022-08-01T08:51:34;1.92;;;1.00;;
29484;SDS011;16440;59.494;17.978;2022-08-01T08:54:06;4.35;;;1.00;;
29484;SDS011;16440;59.494;17.978;2022-08-01T08:56:37;2.00;;;0.90;;
29484;SDS011;16440;59.494;17.978;2022-08-01T09:01:34;2.17;;;1.05;;
29484;SDS011;16440;59.494;17.978;2022-08-01T09:04:03;2.62;;;0.95;;
29484;SDS011;16440;59.494;17.978;2022-08-01T09:06:31;2.12;;;1.00;;
29484;SDS011;16440;59.494;17.978;2022-08-01T09:09:00;1.17;;;0.88;;
29484;SDS011;16440;59.494;17.978;2022-08-01T09:11:31;1.35;;;1.15;;
29484;SDS011;16440;59.494;17.978;2022-08-01T09:14:04;4.10;;;1.23;;
29484;SDS011;16440;59.494;17.978;2022-08-01T09:16:33;2.05;;;1.00;;
29484;SDS011;16440;59.494;17.978;2022-08-01T09:21:35;1.95;;;1.00;;
29484;SDS011;16440;59.494;17.978;2022-08-01T09:24:12;1.35;;;0.95;;
29484;SDS011;16440;59.494;17.978;2022-08-01T09:26:42;1.37;;;0.90;;
29484;SDS011;16440;59.494;17.978;2022-08-01T09:29:17;1.80;;;1.00;;
29484;SDS011;16440;59.494;17.978;2022-08-01T09:31:47;2.90;;;1.12;;
29484;SDS011;16440;59.494;17.978;2022-08-01T09:34:15;1.55;;;1.00;;
29484;SDS011;16440;59.494;17.978;2022-08-01T09:36:51;1.33;;;0.90;;
29484;SDS011;16440;59.494;17.978;2022-08-01T09:39:23;1.30;;;0.80;;
29484;SDS011;16440;59.494;17.978;2022-08-01T09:41:52;1.05;;;0.82;;
29484;SDS011;16440;59.494;17.978;2022-08-01T09:44:36;1.92;;;1.17;;
29484;SDS011;16440;59.494;17.978;2022-08-01T09:47:05;3.97;;;1.27;;
29484;SDS011;16440;59.494;17.978;2022-08-01T09:49:34;2.78;;;1.30;;
29484;SDS011;16440;59.494;17.978;2022-08-01T09:54:41;2.17;;;0.95;;
29484;SDS011;16440;59.494;17.978;2022-08-01T09:57:13;4.23;;;1.07;;
29484;SDS011;16440;59.494;17.978;2022-08-01T09:59:43;2.03;;;0.98;;
29484;SDS011;16440;59.494;17.978;2022-08-01T10:02:13;3.65;;;1.10;;
29484;SDS011;16440;59.494;17.978;2022-08-01T10:04:53;2.25;;;0.80;;
29484;SDS011;16440;59.494;17.978;2022-08-01T10:07:21;2.10;;;1.25;;
29484;SDS011;16440;59.494;17.978;2022-08-01T10:09:51;1.20;;;1.00;;
29484;SDS011;16440;59.494;17.978;2022-08-01T10:12:20;1.60;;;1.15;;
29484;SDS011;16440;59.494;17.978;2022-08-01T10:14:50;2.17;;;0.90;;
29484;SDS011;16440;59.494;17.978;2022-08-01T10:17:20;2.72;;;1.00;;
29484;SDS011;16440;59.494;17.978;2022-08-01T10:19:52;2.62;;;0.98;;
29484;SDS011;16440;59.494;17.978;2022-08-01T10:22:22;1.75;;;0.88;;
29484;SDS011;16440;59.494;17.978;2022-08-01T10:24:54;2.08;;;1.15;;
29484;SDS011;16440;59.494;17.978;2022-08-01T10:29:55;1.87;;;1.02;;
29484;SDS011;16440;59.494;17.978;2022-08-01T10:32:28;2.60;;;0.85;;
29484;SDS011;16440;59.494;17.978;2022-08-01T10:34:57;2.30;;;0.93;;
29484;SDS011;16440;59.494;17.978;2022-08-01T10:37:25;1.35;;;0.90;;
29484;SDS011;16440;59.494;17.978;2022-08-01T10:39:55;1.42;;;0.77;;
29484;SDS011;16440;59.494;17.978;2022-08-01T10:42:24;1.98;;;1.20;;
29484;SDS011;16440;59.494;17.978;2022-08-01T10:44:52;1.30;;;0.82;;
29484;SDS011;16440;59.494;17.978;2022-08-01T10:47:25;1.03;;;0.90;;
29484;SDS011;16440;59.494;17.978;2022-08-01T10:50:03;4.25;;;1.20;;
29484;SDS011;16440;59.494;17.978;2022-08-01T10:52:31;2.53;;;1.23;;
29484;SDS011;16440;59.494;17.978;2022-08-01T10:55:04;1.92;;;1.10;;
29484;SDS011;16440;59.494;17.978;2022-08-01T10:57:42;1.05;;;0.77;;
29484;SDS011;16440;59.494;17.978;2022-08-01T11:00:16;1.10;;;0.90;;
29484;SDS011;16440;59.494;17.978;2022-08-01T11:02:56;2.00;;;1.02;;
29484;SDS011;16440;59.494;17.978;2022-08-01T11:05:30;2.85;;;1.00;;
29484;SDS011;16440;59.494;17.978;2022-08-01T11:08:01;1.10;;;0.88;;
29484;SDS011;16440;59.494;17.978;2022-08-01T11:10:33;2.30;;;1.00;;
29484;SDS011;16440;59.494;17.978;2022-08-01T11:15:36;2.40;;;0.80;;
29484;SDS011;16440;59.494;17.978;2022-08-01T11:20:54;3.55;;;1.12;;
29484;SDS011;16440;59.494;17.978;2022-08-01T11:23:24;2.60;;;0.82;;
29484;SDS011;16440;59.494;17.978;2022-08-01T11:28:44;1.62;;;1.00;;
29484;SDS011;16440;59.494;17.978;2022-08-01T11:31:27;2.50;;;1.33;;
29484;SDS011;16440;59.494;17.978;2022-08-01T11:33:57;1.12;;;0.80;;
29484;SDS011;16440;59.494;17.978;2022-08-01T11:36:26;2.75;;;1.00;;
29484;SDS011;16440;59.494;17.978;2022-08-01T11:41:42;4.07;;;0.95;;
29484;SDS011;16440;59.494;17.978;2022-08-01T11:44:14;1.62;;;1.10;;
29484;SDS011;16440;59.494;17.978;2022-08-01T11:46:51;1.73;;;1.10;;
29484;SDS011;16440;59.494;17.978;2022-08-01T11:49:26;1.73;;;1.00;;
29484;SDS011;16440;59.494;17.978;2022-08-01T11:52:01;1.17;;;0.90;;
29484;SDS011;16440;59.494;17.978;2022-08-01T11:57:42;2.70;;;1.00;;
29484;SDS011;16440;59.494;17.978;2022-08-01T12:00:12;2.50;;;1.02;;
29484;SDS011;16440;59.494;17.978;2022-08-01T12:02:42;1.27;;;0.97;;
29484;SDS011;16440;59.494;17.978;2022-08-01T12:05:12;5.22;;;1.20;;
29484;SDS011;16440;59.494;17.978;2022-08-01T12:07:43;3.10;;;1.07;;
29484;SDS011;16440;59.494;17.978;2022-08-01T12:10:16;1.30;;;0.90;;
29484;SDS011;16440;59.494;17.978;2022-08-01T12:12:46;1.48;;;0.85;;
29484;SDS011;16440;59.494;17.978;2022-08-01T12:15:17;2.33;;;1.00;;
29484;SDS011;16440;59.494;17.978;2022-08-01T12:17:48;1.67;;;0.90;;
29484;SDS011;16440;59.494;17.978;2022-08-01T12:20:22;0.80;;;0.80;;
29484;SDS011;16440;59.494;17.978;2022-08-01T12:22:53;1.58;;;1.05;;
29484;SDS011;16440;59.494;17.978;2022-08-01T12:25:22;0.85;;;0.80;;
29484;SDS011;16440;59.494;17.978;2022-08-01T12:27:50;2.15;;;1.12;;
29484;SDS011;16440;59.494;17.978;2022-08-01T12:30:20;1.83;;;0.82;;
29484;SDS011;16440;59.494;17.978;2022-08-01T12:32:49;3.92;;;1.10;;
29484;SDS011;16440;59.494;17.978;2022-08-01T12:35:19;3.40;;;0.98;;
29484;SDS011;16440;59.494;17.978;2022-08-01T12:37:50;2.17;;;0.90;;
29484;SDS011;16440;59.494;17.978;2022-08-01T12:40:19;2.45;;;1.00;;
29484;SDS011;16440;59.494;17.978;2022-08-01T12:42:49;1.67;;;1.10;;
29484;SDS011;16440;59.494;17.978;2022-08-01T12:45:20;4.35;;;1.00;;
29484;SDS011;16440;59.494;17.978;2022-08-01T12:47:50;1.62;;;0.95;;
29484;SDS011;16440;59.494;17.978;2022-08-01T12:50:20;2.80;;;0.88;;
29484;SDS011;16440;59.494;17.978;2022-08-01T12:52:50;1.17;;;0.90;;
29484;SDS011;16440;59.494;17.978;2022-08-01T12:55:19;2.55;;;0.95;;
29484;SDS011;16440;59.494;17.978;2022-08-01T12:57:49;1.40;;;0.90;;
29484;SDS011;16440;59.494;17.978;2022-08-01T13:00:31;2.28;;;1.00;;
29484;SDS011;16440;59.494;17.978;2022-08-01T13:03:01;1.50;;;0.88;;
29484;SDS011;16440;59.494;17.978;2022-08-01T13:05:42;3.75;;;0.90;;
29484;SDS011;16440;59.494;17.978;2022-08-01T13:08:11;3.35;;;0.82;;
29484;SDS011;16440;59.494;17.978;2022-08-01T13:10:40;2.10;;;1.00;;
29484;SDS011;16440;59.494;17.978;2022-08-01T13:13:10;2.37;;;0.75;;
29484;SDS011;16440;59.494;17.978;2022-08-01T13:15:40;1.55;;;1.10;;
29484;SDS011;16440;59.494;17.978;2022-08-01T13:18:25;1.33;;;0.80;;
29484;SDS011;16440;59.494;17.978;2022-08-01T13:23:35;1.40;;;0.90;;
29484;SDS011;16440;59.494;17.978;2022-08-01T13:26:04;2.20;;;1.15;;
29484;SDS011;16440;59.494;17.978;2022-08-01T13:28:32;4.55;;;0.88;;
29484;SDS011;16440;59.494;17.978;2022-08-01T13:31:04;3.70;;;1.15;;
29484;SDS011;16440;59.494;17.978;2022-08-01T13:33:41;1.52;;;0.77;;
29484;SDS011;16440;59.494;17.978;2022-08-01T13:36:11;2.30;;;0.90;;
29484;SDS011;16440;59.494;17.978;2022-08-01T13:38:39;1.73;;;1.08;;
29484;SDS011;16440;59.494;17.978;2022-08-01T13:41:25;4.37;;;1.00;;
29484;SDS011;16440;59.494;17.978;2022-08-01T13:43:53;3.30;;;1.02;;
29484;SDS011;16440;59.494;17.978;2022-08-01T13:46:23;2.95;;;1.00;;
29484;SDS011;16440;59.494;17.978;2022-08-01T13:48:51;2.00;;;1.00;;
29484;SDS011;16440;59.494;17.978;2022-08-01T13:51:19;3.72;;;0.90;;
29484;SDS011;16440;59.494;17.978;2022-08-01T13:53:47;1.50;;;1.10;;
29484;SDS011;16440;59.494;17.978;2022-08-01T13:56:15;2.55;;;0.80;;
29484;SDS011;16440;59.494;17.978;2022-08-01T13:58:43;1.12;;;0.77;;
29484;SDS011;16440;59.494;17.978;2022-08-01T14:01:11;3.87;;;1.02;;
29484;SDS011;16440;59.494;17.978;2022-08-01T14:03:41;1.48;;;0.90;;
29484;SDS011;16440;59.494;17.978;2022-08-01T14:06:09;2.87;;;1.10;;
29484;SDS011;16440;59.494;17.978;2022-08-01T14:08:37;1.65;;;0.90;;
29484;SDS011;16440;59.494;17.978;2022-08-01T14:11:05;3.25;;;1.10;;
29484;SDS011;16440;59.494;17.978;2022-08-01T14:13:31;5.62;;;1.10;;
29484;SDS011;16440;59.494;17.978;2022-08-01T14:16:02;1.48;;;0.88;;
29484;SDS011;16440;59.494;17.978;2022-08-01T14:18:30;3.40;;;1.20;;
29484;SDS011;16440;59.494;17.978;2022-08-01T14:21:00;1.90;;;1.02;;
29484;SDS011;16440;59.494;17.978;2022-08-01T14:23:28;1.65;;;0.90;;
29484;SDS011;16440;59.494;17.978;2022-08-01T14:25:56;4.65;;;1.05;;
29484;SDS011;16440;59.494;17.978;2022-08-01T14:28:24;2.67;;;0.77;;
29484;SDS011;16440;59.494;17.978;2022-08-01T14:30:53;3.25;;;0.90;;
29484;SDS011;16440;59.494;17.978;2022-08-01T14:33:22;3.58;;;0.90;;
29484;SDS011;16440;59.494;17.978;2022-08-01T14:35:50;4.45;;;1.00;;
29484;SDS011;16440;59.494;17.978;2022-08-01T14:38:19;4.53;;;1.10;;
29484;SDS011;16440;59.494;17.978;2022-08-01T14:40:47;1.42;;;0.90;;
29484;SDS011;16440;59.494;17.978;2022-08-01T14:43:16;1.85;;;0.90;;
29484;SDS011;16440;59.494;17.978;2022-08-01T14:45:44;2.08;;;0.80;;
29484;SDS011;16440;59.494;17.978;2022-08-01T14:48:15;2.58;;;0.80;;
29484;SDS011;16440;59.494;17.978;2022-08-01T14:50:43;1.40;;;1.00;;
29484;SDS011;16440;59.494;17.978;2022-08-01T14:53:12;2.25;;;0.90;;
29484;SDS011;16440;59.494;17.978;2022-08-01T14:55:41;2.22;;;1.00;;
29484;SDS011;16440;59.494;17.978;2022-08-01T14:58:09;2.05;;;0.80;;
29484;SDS011;16440;59.494;17.978;2022-08-01T15:00:38;3.50;;;0.80;;
29484;SDS011;16440;59.494;17.978;2022-08-01T15:03:06;3.72;;;1.00;;
29484;SDS011;16440;59.494;17.978;2022-08-01T15:05:34;2.22;;;1.20;;
29484;SDS011;16440;59.494;17.978;2022-08-01T15:08:02;3.90;;;1.00;;
29484;SDS011;16440;59.494;17.978;2022-08-01T15:10:30;3.03;;;0.93;;
29484;SDS011;16440;59.494;17.978;2022-08-01T15:13:02;4.60;;;1.05;;
29484;SDS011;16440;59.494;17.978;2022-08-01T15:15:30;2.25;;;0.80;;
29484;SDS011;16440;59.494;17.978;2022-08-01T15:17:58;1.35;;;0.90;;
29484;SDS011;16440;59.494;17.978;2022-08-01T15:20:29;2.10;;;1.20;;
29484;SDS011;16440;59.494;17.978;2022-08-01T15:22:58;1.48;;;1.15;;
29484;SDS011;16440;59.494;17.978;2022-08-01T15:25:26;3.05;;;0.90;;
29484;SDS011;16440;59.494;17.978;2022-08-01T15:27:55;3.65;;;0.80;;
29484;SDS011;16440;59.494;17.978;2022-08-01T15:30:25;2.92;;;1.00;;
29484;SDS011;16440;59.494;17.978;2022-08-01T15:32:53;1.30;;;0.90;;
29484;SDS011;16440;59.494;17.978;2022-08-01T15:35:21;4.97;;;1.00;;
29484;SDS011;16440;59.494;17.978;2022-08-01T15:37:50;2.42;;;0.90;;
29484;SDS011;16440;59.494;17.978;2022-08-01T15:40:18;2.70;;;0.80;;